createdAt,value
2023-04-22T00:00:14.448Z,8.50
2023-04-22T00:02:41.566Z,9.40
2023-04-22T00:05:09.252Z,9.50
2023-04-22T00:07:36.135Z,9.50
2023-04-22T00:10:02.929Z,9.60
2023-04-22T00:12:29.750Z,9.50
2023-04-22T00:14:56.592Z,9.50
2023-04-22T00:17:23.588Z,9.60
2023-04-22T00:19:50.365Z,9.60
2023-04-22T00:22:17.169Z,9.60
2023-04-22T00:24:43.906Z,9.50
2023-04-22T00:27:10.852Z,9.20
2023-04-22T00:29:38.411Z,8.80
2023-04-22T00:32:05.893Z,8.90
2023-04-22T00:34:32.604Z,9.10
2023-04-22T00:36:59.392Z,9.20
2023-04-22T00:39:26.250Z,9.00
2023-04-22T00:41:53.547Z,9.20
2023-04-22T00:44:20.629Z,9.20
2023-04-22T00:46:47.566Z,9.40
2023-04-22T00:49:15.060Z,9.60
2023-04-22T00:51:41.821Z,9.80
2023-04-22T00:54:08.634Z,9.80
2023-04-22T00:56:38.167Z,9.90
2023-04-22T00:59:04.993Z,9.90
2023-04-22T01:01:32.759Z,9.80
2023-04-22T01:04:00.994Z,9.90
2023-04-22T01:06:31.438Z,10.10
2023-04-22T01:08:59.100Z,10.00
2023-04-22T01:11:25.963Z,9.90
2023-04-22T01:13:53.211Z,9.90
2023-04-22T01:16:20.689Z,10.00
2023-04-22T01:18:47.594Z,10.10
2023-04-22T01:21:14.851Z,10.00
2023-04-22T01:23:41.784Z,10.00
2023-04-22T01:26:09.565Z,9.90
2023-04-22T01:28:36.573Z,9.90
2023-04-22T01:31:03.889Z,9.70
2023-04-22T01:33:31.044Z,9.90
2023-04-22T01:35:57.893Z,10.00
2023-04-22T01:38:24.903Z,10.10
2023-04-22T01:40:51.943Z,10.10
2023-04-22T01:43:19.364Z,9.90
2023-04-22T01:45:46.786Z,9.90
2023-04-22T01:48:13.615Z,9.90
2023-04-22T01:50:40.374Z,9.80
2023-04-22T01:53:08.709Z,9.50
2023-04-22T01:55:36.290Z,9.60
2023-04-22T01:58:04.588Z,9.80
2023-04-22T02:00:31.956Z,9.70
2023-04-22T02:02:58.762Z,9.80
2023-04-22T02:05:26.489Z,10.00
2023-04-22T02:07:54.104Z,10.10
2023-04-22T02:10:21.500Z,10.10
2023-04-22T02:12:48.241Z,10.10
2023-04-22T02:15:15.297Z,10.10
2023-04-22T02:17:43.373Z,10.00
2023-04-22T02:20:11.513Z,10.10
2023-04-22T02:22:39.261Z,10.30
2023-04-22T02:25:06.627Z,10.20
2023-04-22T02:27:33.358Z,10.40
2023-04-22T02:30:00.590Z,10.60
2023-04-22T02:32:27.438Z,10.60
2023-04-22T02:34:54.243Z,10.50
2023-04-22T02:37:22.847Z,10.40
2023-04-22T02:39:49.932Z,10.40
2023-04-22T02:42:16.712Z,10.50
2023-04-22T02:44:43.507Z,10.40
2023-04-22T02:47:10.357Z,10.50
2023-04-22T02:49:37.343Z,10.50
2023-04-22T02:52:05.113Z,10.50
2023-04-22T02:54:31.817Z,10.50
2023-04-22T02:56:58.809Z,10.40
2023-04-22T02:59:25.572Z,10.40
2023-04-22T03:01:52.303Z,10.40
2023-04-22T03:04:21.987Z,10.40
2023-04-22T03:06:52.448Z,10.40
2023-04-22T03:09:19.214Z,10.20
2023-04-22T03:11:46.316Z,10.10
2023-04-22T03:14:13.153Z,10.10
2023-04-22T03:16:40.041Z,10.10
2023-04-22T03:19:06.913Z,10.20
2023-04-22T03:21:33.691Z,10.10
2023-04-22T03:24:00.541Z,10.10
2023-04-22T03:26:27.449Z,10.20
2023-04-22T03:28:54.576Z,10.30
2023-04-22T03:31:21.608Z,10.20
2023-04-22T03:33:48.496Z,10.20
2023-04-22T03:36:15.731Z,10.40
2023-04-22T03:38:42.519Z,10.40
2023-04-22T03:41:09.637Z,10.40
2023-04-22T03:43:36.454Z,10.30
2023-04-22T03:46:03.289Z,10.00
2023-04-22T03:48:34.984Z,10.60
2023-04-22T03:51:02.667Z,10.30
2023-04-22T03:53:29.456Z,10.40
2023-04-22T03:55:56.193Z,10.20
2023-04-22T03:58:22.921Z,10.30
2023-04-22T04:00:49.746Z,10.50
2023-04-22T04:03:16.707Z,10.50
2023-04-22T04:05:44.104Z,10.40
2023-04-22T04:08:11.308Z,10.30
2023-04-22T04:10:38.298Z,10.20
2023-04-22T04:13:05.115Z,10.20
2023-04-22T04:15:32.804Z,10.30
2023-04-22T04:18:01.419Z,9.70
2023-04-22T04:20:28.664Z,10.20
2023-04-22T04:22:56.296Z,10.20
2023-04-22T04:25:23.389Z,10.10
2023-04-22T04:27:51.875Z,10.20
2023-04-22T04:30:19.670Z,10.20
2023-04-22T04:32:46.456Z,10.20
2023-04-22T04:35:14.226Z,10.20
2023-04-22T04:37:43.497Z,10.10
2023-04-22T04:40:12.245Z,10.10
2023-04-22T04:42:39.084Z,10.20
2023-04-22T04:45:06.519Z,10.20
2023-04-22T04:47:34.078Z,10.10
2023-04-22T04:50:01.754Z,10.00
2023-04-22T04:52:28.460Z,10.10
2023-04-22T04:54:55.331Z,10.10
2023-04-22T04:57:22.108Z,10.00
2023-04-22T04:59:48.870Z,10.00
2023-04-22T05:02:15.770Z,10.00
2023-04-22T05:04:42.676Z,10.10
2023-04-22T05:07:09.539Z,10.10
2023-04-22T05:09:37.781Z,10.20
2023-04-22T05:12:05.150Z,10.30
2023-04-22T05:14:32.074Z,10.20
2023-04-22T05:16:58.933Z,10.30
2023-04-22T05:19:25.727Z,10.20
2023-04-22T05:21:52.466Z,10.10
2023-04-22T05:24:19.258Z,10.00
2023-04-22T05:26:45.997Z,10.10
2023-04-22T05:29:12.750Z,10.10
2023-04-22T05:31:39.722Z,10.10
2023-04-22T05:34:06.666Z,10.20
2023-04-22T05:36:33.411Z,10.20
2023-04-22T05:39:00.453Z,10.30
2023-04-22T05:41:27.251Z,10.40
2023-04-22T05:43:54.083Z,10.30
2023-04-22T05:46:21.097Z,10.30
2023-04-22T05:48:48.856Z,10.20
2023-04-22T05:51:15.731Z,10.20
2023-04-22T05:53:42.558Z,10.20
2023-04-22T05:56:09.348Z,10.30
2023-04-22T05:58:36.110Z,10.30
2023-04-22T06:01:02.921Z,10.30
2023-04-22T06:03:30.321Z,10.40
2023-04-22T06:05:57.975Z,10.40
2023-04-22T06:08:25.010Z,10.40
2023-04-22T06:10:51.956Z,10.40
2023-04-22T06:13:18.768Z,10.30
2023-04-22T06:15:45.548Z,10.30
2023-04-22T06:18:12.435Z,10.30
2023-04-22T06:20:39.527Z,10.30
2023-04-22T06:23:06.286Z,10.40
2023-04-22T06:25:33.568Z,10.50
2023-04-22T06:28:00.317Z,10.50
2023-04-22T06:30:27.908Z,10.50
2023-04-22T06:32:55.378Z,10.70
2023-04-22T06:35:22.392Z,10.70
2023-04-22T06:37:49.110Z,10.70
2023-04-22T06:40:15.980Z,10.70
2023-04-22T06:42:42.789Z,10.60
2023-04-22T06:45:12.749Z,10.60
2023-04-22T06:47:40.280Z,10.70
2023-04-22T06:50:10.905Z,10.50
2023-04-22T06:52:37.699Z,10.70
2023-04-22T06:55:05.123Z,10.70
2023-04-22T06:57:32.091Z,10.80
2023-04-22T06:59:58.902Z,11.00
2023-04-22T07:02:25.781Z,10.90
2023-04-22T07:04:52.691Z,10.90
2023-04-22T07:07:19.487Z,10.80
2023-04-22T07:09:46.305Z,10.80
2023-04-22T07:12:13.178Z,10.70
2023-04-22T07:14:46.709Z,11.00
2023-04-22T07:17:13.652Z,11.20
2023-04-22T07:19:40.913Z,11.30
2023-04-22T07:22:08.586Z,11.10
2023-04-22T07:24:35.390Z,11.20
2023-04-22T07:27:02.625Z,11.30
2023-04-22T07:29:29.386Z,11.10
2023-04-22T07:31:56.186Z,11.30
2023-04-22T07:34:23.054Z,11.10
2023-04-22T07:36:52.282Z,11.10
2023-04-22T07:39:19.210Z,11.10
2023-04-22T07:41:45.986Z,11.10
2023-04-22T07:44:16.480Z,11.30
2023-04-22T07:46:43.704Z,11.30
2023-04-22T07:49:10.564Z,11.20
2023-04-22T07:51:37.312Z,11.30
2023-04-22T07:54:04.135Z,11.50
2023-04-22T07:56:31.068Z,11.60
2023-04-22T07:58:57.803Z,11.60
2023-04-22T08:01:24.617Z,11.50
2023-04-22T08:03:51.637Z,11.30
2023-04-22T08:06:19.051Z,11.20
2023-04-22T08:08:46.106Z,11.40
2023-04-22T08:11:12.886Z,11.40
2023-04-22T08:13:39.686Z,11.40
2023-04-22T08:16:07.615Z,11.40
2023-04-22T08:18:35.143Z,11.30
2023-04-22T08:21:02.104Z,11.20
2023-04-22T08:23:29.002Z,11.20
2023-04-22T08:25:55.798Z,11.20
2023-04-22T08:28:22.790Z,11.40
2023-04-22T08:30:49.959Z,11.30
2023-04-22T08:33:17.530Z,11.10
2023-04-22T08:35:44.343Z,11.40
2023-04-22T08:38:11.116Z,11.70
2023-04-22T08:40:42.018Z,11.80
2023-04-22T08:43:09.696Z,12.00
2023-04-22T08:45:39.721Z,11.70
2023-04-22T08:48:09.068Z,11.80
2023-04-22T08:50:38.296Z,11.90
2023-04-22T08:53:05.102Z,11.90
2023-04-22T08:55:32.436Z,11.50
2023-04-22T08:58:01.745Z,11.60
2023-04-22T09:00:28.601Z,11.60
2023-04-22T09:02:57.369Z,12.00
2023-04-22T09:05:27.846Z,11.90
2023-04-22T09:07:55.275Z,11.80
2023-04-22T09:10:22.100Z,12.00
2023-04-22T09:12:49.459Z,12.10
2023-04-22T09:15:16.644Z,12.20
2023-04-22T09:17:43.815Z,12.20
2023-04-22T09:20:12.234Z,12.20
2023-04-22T09:22:41.765Z,12.30
2023-04-22T09:25:28.957Z,12.40
2023-04-22T09:27:59.990Z,12.50
2023-04-22T09:30:31.723Z,12.50
2023-04-22T09:33:00.455Z,12.90
2023-04-22T09:35:39.913Z,13.10
2023-04-22T09:38:09.030Z,13.00
2023-04-22T09:40:38.113Z,13.20
2023-04-22T09:43:07.523Z,13.00
2023-04-22T09:45:36.407Z,12.90
2023-04-22T09:48:18.205Z,12.80
2023-04-22T09:50:49.601Z,13.00
2023-04-22T09:53:32.967Z,13.00
2023-04-22T09:56:00.032Z,13.20
2023-04-22T09:58:27.978Z,13.40
2023-04-22T10:00:57.870Z,13.50
2023-04-22T10:03:25.002Z,13.40
2023-04-22T10:05:52.339Z,13.50
2023-04-22T10:08:19.231Z,13.80
2023-04-22T10:10:46.305Z,13.80
2023-04-22T10:13:13.183Z,13.80
2023-04-22T10:15:48.504Z,13.70
2023-04-22T10:18:39.251Z,12.60
2023-04-22T10:21:07.074Z,13.80
2023-04-22T10:23:34.055Z,14.10
2023-04-22T10:26:01.062Z,13.80
2023-04-22T10:28:31.798Z,14.20
2023-04-22T10:30:58.541Z,14.30
2023-04-22T10:33:27.727Z,13.00
2023-04-22T10:36:14.462Z,14.50
2023-04-22T10:39:02.093Z,14.50
2023-04-22T10:41:35.726Z,14.30
2023-04-22T10:44:06.972Z,14.80
2023-04-22T10:46:45.470Z,15.80
2023-04-22T10:49:24.235Z,15.20
2023-04-22T10:51:55.808Z,15.60
2023-04-22T10:54:31.447Z,15.90
2023-04-22T10:57:19.291Z,16.00
2023-04-22T10:59:54.370Z,16.10
2023-04-22T11:02:22.847Z,15.80
2023-04-22T11:04:50.966Z,15.80
2023-04-22T11:07:22.768Z,15.30
2023-04-22T11:10:07.816Z,14.80
2023-04-22T11:12:41.810Z,14.90
2023-04-22T11:15:14.558Z,15.10
2023-04-22T11:17:47.510Z,15.20
2023-04-22T11:20:18.278Z,15.10
2023-04-22T11:22:48.365Z,15.00
2023-04-22T11:25:15.446Z,15.40
2023-04-22T11:27:43.776Z,15.20
2023-04-22T11:30:17.574Z,14.80
2023-04-22T11:32:47.104Z,14.60
2023-04-22T11:35:19.776Z,14.70
2023-04-22T11:38:08.672Z,14.70
2023-04-22T11:40:39.937Z,14.40
2023-04-22T11:43:09.781Z,14.50
2023-04-22T11:45:38.102Z,14.50
2023-04-22T11:48:09.936Z,14.70
2023-04-22T11:50:39.363Z,15.70
2023-04-22T11:53:15.238Z,14.80
2023-04-22T11:55:42.851Z,14.90
2023-04-22T11:58:10.846Z,14.70
2023-04-22T12:00:41.901Z,15.00
2023-04-22T12:03:17.160Z,15.20
2023-04-22T12:05:49.982Z,15.30
2023-04-22T12:08:26.216Z,15.60
2023-04-22T12:10:58.699Z,16.10
2023-04-22T12:13:30.168Z,16.40
2023-04-22T12:16:02.330Z,16.50
2023-04-22T12:18:32.912Z,16.60
2023-04-22T12:21:10.235Z,16.20
2023-04-22T12:23:50.426Z,15.80
2023-04-22T12:26:19.192Z,15.70
2023-04-22T12:28:46.648Z,15.40
2023-04-22T12:31:15.065Z,15.90
2023-04-22T12:33:42.721Z,16.20
2023-04-22T12:36:10.304Z,16.00
2023-04-22T12:38:38.047Z,15.70
2023-04-22T12:41:06.407Z,14.70
2023-04-22T12:43:36.647Z,15.70
2023-04-22T12:46:04.382Z,15.80
2023-04-22T12:48:31.756Z,16.30
2023-04-22T12:50:59.200Z,16.30
2023-04-22T12:53:27.965Z,16.00
2023-04-22T12:55:55.506Z,15.60
2023-04-22T12:58:22.381Z,15.60
2023-04-22T13:00:49.150Z,15.60
2023-04-22T13:03:16.480Z,15.60
2023-04-22T13:05:45.334Z,15.60
2023-04-22T13:08:12.227Z,16.30
2023-04-22T13:10:39.050Z,16.70
2023-04-22T13:15:38.798Z,17.60
2023-04-22T13:18:05.859Z,18.40
2023-04-22T13:20:32.641Z,19.00
2023-04-22T13:22:59.384Z,18.30
2023-04-22T13:25:26.166Z,18.10
2023-04-22T13:27:52.909Z,18.00
2023-04-22T13:30:20.161Z,20.20
2023-04-22T13:32:47.082Z,19.40
2023-04-22T13:35:13.838Z,19.30
2023-04-22T13:37:40.718Z,19.00
2023-04-22T13:40:08.625Z,19.10
2023-04-22T13:42:35.538Z,18.80
2023-04-22T13:45:02.268Z,19.70
2023-04-22T13:47:29.483Z,20.00
2023-04-22T13:49:57.755Z,18.80
2023-04-22T13:52:24.721Z,17.40
2023-04-22T13:54:51.613Z,18.50
2023-04-22T13:57:18.679Z,18.50
2023-04-22T13:59:45.388Z,18.10
2023-04-22T14:02:12.165Z,17.00
2023-04-22T14:04:38.961Z,17.00
2023-04-22T14:07:05.850Z,16.60
2023-04-22T14:09:32.661Z,18.10
2023-04-22T14:11:59.437Z,18.80
2023-04-22T14:14:26.225Z,18.20
2023-04-22T14:16:53.005Z,18.50
2023-04-22T14:19:20.199Z,19.30
2023-04-22T14:21:47.353Z,18.60
2023-04-22T14:24:14.419Z,17.60
2023-04-22T14:26:41.361Z,17.40
2023-04-22T14:29:08.805Z,18.00
2023-04-22T14:31:35.786Z,18.20
2023-04-22T14:34:02.765Z,18.30
2023-04-22T14:36:29.969Z,18.80
2023-04-22T14:38:56.674Z,18.00
2023-04-22T14:41:23.869Z,17.70
2023-04-22T14:43:50.630Z,18.00
2023-04-22T14:46:17.364Z,17.90
2023-04-22T14:48:44.806Z,17.60
2023-04-22T14:51:11.821Z,17.40
2023-04-22T14:53:38.967Z,16.90
2023-04-22T14:56:05.721Z,16.70
2023-04-22T14:58:32.619Z,16.40
2023-04-22T15:00:59.948Z,16.40
2023-04-22T15:03:27.021Z,16.30
2023-04-22T15:05:55.270Z,16.20
2023-04-22T15:08:22.606Z,16.30
2023-04-22T15:10:49.432Z,16.00
2023-04-22T15:13:16.240Z,15.70
2023-04-22T15:15:43.185Z,15.80
2023-04-22T15:18:12.559Z,15.80
2023-04-22T15:20:39.352Z,15.50
2023-04-22T15:23:06.050Z,15.60
2023-04-22T15:25:33.186Z,15.50
2023-04-22T15:27:59.983Z,15.60
2023-04-22T15:30:26.829Z,15.20
2023-04-22T15:32:53.735Z,15.20
2023-04-22T15:35:21.587Z,15.40
2023-04-22T15:37:48.371Z,15.50
2023-04-22T15:40:15.368Z,15.10
2023-04-22T15:42:42.326Z,15.00
2023-04-22T15:45:09.439Z,15.10
2023-04-22T15:47:37.790Z,15.10
2023-04-22T15:50:09.060Z,15.10
2023-04-22T15:52:37.703Z,15.30
2023-04-22T15:55:06.137Z,15.10
2023-04-22T15:57:34.995Z,14.90
2023-04-22T16:00:13.901Z,16.60
2023-04-22T16:02:42.986Z,15.10
2023-04-22T16:05:11.759Z,15.40
2023-04-22T16:07:39.524Z,15.50
2023-04-22T16:10:07.204Z,15.10
2023-04-22T16:12:34.527Z,15.10
2023-04-22T16:15:01.958Z,14.80
2023-04-22T16:17:29.023Z,15.30
2023-04-22T16:19:55.939Z,15.30
2023-04-22T16:22:22.800Z,15.40
2023-04-22T16:24:49.520Z,15.10
2023-04-22T16:27:18.118Z,15.60
2023-04-22T16:29:45.328Z,15.40
2023-04-22T16:32:12.364Z,15.30
2023-04-22T16:34:39.263Z,15.60
2023-04-22T16:37:06.516Z,15.60
2023-04-22T16:39:34.011Z,15.70
2023-04-22T16:42:02.301Z,15.50
2023-04-22T16:44:29.299Z,15.20
2023-04-22T16:46:56.172Z,15.20
2023-04-22T16:49:23.176Z,15.40
2023-04-22T16:51:49.954Z,15.40
2023-04-22T16:54:16.803Z,15.50
2023-04-22T16:56:43.543Z,15.40
2023-04-22T16:59:10.456Z,15.20
2023-04-22T17:01:37.421Z,15.50
2023-04-22T17:04:04.362Z,15.20
2023-04-22T17:06:32.429Z,15.20
2023-04-22T17:08:59.919Z,15.20
2023-04-22T17:11:26.759Z,15.20
2023-04-22T17:13:53.716Z,15.20
2023-04-22T17:16:21.010Z,15.40
2023-04-22T17:18:47.933Z,15.40
2023-04-22T17:21:16.383Z,15.50
2023-04-22T17:23:43.270Z,15.70
2023-04-22T17:26:10.039Z,15.80
2023-04-22T17:28:37.034Z,16.20
2023-04-22T17:31:04.198Z,16.10
2023-04-22T17:33:31.436Z,16.00
2023-04-22T17:35:58.294Z,15.70
2023-04-22T17:38:25.053Z,15.50
2023-04-22T17:40:51.938Z,15.40
2023-04-22T17:43:18.720Z,15.40
2023-04-22T17:45:45.582Z,15.30
2023-04-22T17:48:12.326Z,15.40
2023-04-22T17:50:39.129Z,15.50
2023-04-22T17:53:05.956Z,15.80
2023-04-22T17:55:35.243Z,15.90
2023-04-22T17:58:02.844Z,15.80
2023-04-22T18:00:30.747Z,15.60
2023-04-22T18:02:57.910Z,15.70
2023-04-22T18:05:27.047Z,15.80
2023-04-22T18:08:00.708Z,15.90
2023-04-22T18:10:27.989Z,15.70
2023-04-22T18:12:55.421Z,15.70
2023-04-22T18:15:23.516Z,15.70
2023-04-22T18:17:51.207Z,15.50
2023-04-22T18:20:19.597Z,15.50
2023-04-22T18:22:52.072Z,15.50
2023-04-22T18:25:18.977Z,15.30
2023-04-22T18:27:46.309Z,15.40
2023-04-22T18:30:13.585Z,15.30
2023-04-22T18:32:40.577Z,15.20
2023-04-22T18:35:08.140Z,15.20
2023-04-22T18:37:35.074Z,15.10
2023-04-22T18:40:02.694Z,15.20
2023-04-22T18:42:29.833Z,15.20
2023-04-22T18:44:56.808Z,15.20
2023-04-22T18:47:23.784Z,15.00
2023-04-22T18:49:53.108Z,14.80
2023-04-22T18:52:19.976Z,14.80
2023-04-22T18:54:46.906Z,14.50
2023-04-22T18:57:13.719Z,13.80
2023-04-22T18:59:40.997Z,13.40
2023-04-22T19:02:10.874Z,13.10
2023-04-22T19:04:38.024Z,12.90
2023-04-22T19:07:05.207Z,13.00
2023-04-22T19:09:32.342Z,13.00
2023-04-22T19:11:59.657Z,12.90
2023-04-22T19:14:26.639Z,12.80
2023-04-22T19:16:53.448Z,12.80
2023-04-22T19:19:20.168Z,12.70
2023-04-22T19:21:47.168Z,12.80
2023-04-22T19:24:14.403Z,12.60
2023-04-22T19:26:41.347Z,12.60
2023-04-22T19:29:08.779Z,12.40
2023-04-22T19:31:35.676Z,12.90
2023-04-22T19:34:03.103Z,12.50
2023-04-22T19:36:30.075Z,12.60
2023-04-22T19:38:56.856Z,12.60
2023-04-22T19:41:24.133Z,12.70
2023-04-22T19:43:51.249Z,12.70
2023-04-22T19:46:18.131Z,12.30
2023-04-22T19:48:45.201Z,12.30
2023-04-22T19:51:12.754Z,12.20
2023-04-22T19:53:41.147Z,12.40
2023-04-22T19:56:09.323Z,12.40
2023-04-22T19:58:36.582Z,12.60
2023-04-22T20:01:04.558Z,12.50
2023-04-22T20:03:31.602Z,12.40
2023-04-22T20:06:00.380Z,12.40
2023-04-22T20:08:30.814Z,12.50
2023-04-22T20:10:59.567Z,12.40
2023-04-22T20:13:26.890Z,12.20
2023-04-22T20:15:53.780Z,12.10
2023-04-22T20:18:20.771Z,12.10
2023-04-22T20:20:49.245Z,11.90
2023-04-22T20:23:21.253Z,11.80
2023-04-22T20:25:50.165Z,11.90
2023-04-22T20:28:17.411Z,12.10
2023-04-22T20:30:44.453Z,12.20
2023-04-22T20:33:15.178Z,12.00
2023-04-22T20:35:44.230Z,12.10
2023-04-22T20:38:13.325Z,12.10
2023-04-22T20:40:41.132Z,12.50
2023-04-22T20:43:08.058Z,12.60
2023-04-22T20:45:35.132Z,12.80
2023-04-22T20:48:02.043Z,12.90
2023-04-22T20:50:33.448Z,13.20
2023-04-22T20:53:01.423Z,13.40
2023-04-22T20:55:28.351Z,13.00
2023-04-22T20:57:55.301Z,12.70
2023-04-22T21:00:22.380Z,12.70
2023-04-22T21:02:50.617Z,12.60
2023-04-22T21:05:17.982Z,12.90
2023-04-22T21:07:47.042Z,13.20
2023-04-22T21:10:14.433Z,13.40
2023-04-22T21:12:41.378Z,13.40
2023-04-22T21:15:09.232Z,13.40
2023-04-22T21:17:40.240Z,13.40
2023-04-22T21:20:09.383Z,13.70
2023-04-22T21:22:37.504Z,13.80
2023-04-22T21:25:04.975Z,13.70
2023-04-22T21:27:32.020Z,13.70
2023-04-22T21:29:59.069Z,13.70
2023-04-22T21:32:26.710Z,13.70
2023-04-22T21:34:53.461Z,13.50
2023-04-22T21:37:20.249Z,13.30
2023-04-22T21:39:47.069Z,13.30
2023-04-22T21:42:13.812Z,13.40
2023-04-22T21:44:40.693Z,13.50
2023-04-22T21:47:07.615Z,13.40
2023-04-22T21:49:34.371Z,13.00
2023-04-22T21:52:01.258Z,13.20
2023-04-22T21:54:28.083Z,13.10
2023-04-22T21:56:56.234Z,13.00
2023-04-22T21:59:24.723Z,14.00
2023-04-22T22:01:52.001Z,12.90
2023-04-22T22:04:18.958Z,12.60
2023-04-22T22:06:45.904Z,12.40
2023-04-22T22:09:13.775Z,12.40
2023-04-22T22:11:40.703Z,12.60
2023-04-22T22:14:07.510Z,12.80
2023-04-22T22:16:35.035Z,12.80
2023-04-22T22:19:04.702Z,13.00
2023-04-22T22:21:33.319Z,13.00
2023-04-22T22:24:00.202Z,13.10
2023-04-22T22:26:28.025Z,13.10
2023-04-22T22:28:55.286Z,12.90
2023-04-22T22:31:22.168Z,12.70
2023-04-22T22:33:49.128Z,12.70
2023-04-22T22:36:16.298Z,12.40
2023-04-22T22:38:43.268Z,12.50
2023-04-22T22:41:10.307Z,12.90
2023-04-22T22:43:37.353Z,12.50
2023-04-22T22:46:04.258Z,12.30
2023-04-22T22:48:31.300Z,12.30
2023-04-22T22:50:58.161Z,12.20
2023-04-22T22:53:24.879Z,12.30
2023-04-22T22:55:51.690Z,12.10
2023-04-22T22:58:18.648Z,12.10
2023-04-22T23:00:45.531Z,12.00
2023-04-22T23:03:12.751Z,12.20
2023-04-22T23:05:39.652Z,12.00
2023-04-22T23:08:06.880Z,12.20
2023-04-22T23:10:33.869Z,12.20
2023-04-22T23:13:00.592Z,12.40
2023-04-22T23:15:27.309Z,12.40
2023-04-22T23:17:54.040Z,12.40
2023-04-22T23:20:22.328Z,12.20
2023-04-22T23:22:50.706Z,12.40
2023-04-22T23:25:17.825Z,12.30
2023-04-22T23:27:45.266Z,12.30
2023-04-22T23:30:12.501Z,12.50
2023-04-22T23:32:43.424Z,12.40
2023-04-22T23:35:14.071Z,12.50
2023-04-22T23:37:45.429Z,12.60
2023-04-22T23:40:13.519Z,12.50
2023-04-22T23:42:40.422Z,12.40
2023-04-22T23:45:09.648Z,12.50
2023-04-22T23:47:37.095Z,12.10
2023-04-22T23:50:04.882Z,12.10
2023-04-22T23:52:31.746Z,12.20
2023-04-22T23:54:58.771Z,12.00
2023-04-22T23:57:25.889Z,11.90
2023-04-22T23:59:52.875Z,11.80
